AZV1337 UACC-UNNT
Flight info
| Callsign | AZV1337 |
|---|---|
| Flight time | N/A |
| Altitude | 39000 |
| Route | OLGAS1B OLGAS DCT GOLIM GOLIM1K |
| Aircraft | B763/H-SDE3FGHIM3RWXY/LB1 |
Departure
| Time | 2026-05-01 15:22 |
|---|---|
| Airport | Nursultan Nazarbayev International Airport (UACC) |
Arrival
| Time | N/A |
|---|---|
| Airport | Novosibirsk Tolmachevo Airport (UNNT) |
| Time | Latitude | Longitude | Altitude | Speed | Heading |
|---|---|---|---|---|---|
| 2026-05-01 14:59 | 51.02609 | 71.46085 | 1171 ft | 0 kts | 357° |
| 2026-05-01 15:14 | 51.02597 | 71.46086 | 1171 ft | 2 kts | 357° |
| 2026-05-01 15:14 | 51.02566 | 71.46088 | 1171 ft | 2 kts | 358° |
| 2026-05-01 15:15 | 51.02537 | 71.46090 | 1171 ft | 2 kts | 355° |
| 2026-05-01 15:15 | 51.02507 | 71.46092 | 1171 ft | 2 kts | 357° |
| 2026-05-01 15:16 | 51.02481 | 71.46091 | 1171 ft | 0 kts | 42° |
| 2026-05-01 15:16 | 51.02477 | 71.46085 | 1171 ft | 0 kts | 44° |
| 2026-05-01 15:18 | 51.02479 | 71.46089 | 1171 ft | 1 kts | 44° |
| 2026-05-01 15:18 | 51.02529 | 71.46163 | 1172 ft | 19 kts | 43° |
| 2026-05-01 15:19 | 51.02657 | 71.46770 | 1170 ft | 14 kts | 68° |
| 2026-05-01 15:19 | 51.02835 | 71.47061 | 1168 ft | 24 kts | 44° |
| 2026-05-01 15:19 | 51.02971 | 71.47275 | 1166 ft | 30 kts | 44° |
| 2026-05-01 15:20 | 51.03315 | 71.47809 | 1165 ft | 36 kts | 44° |
| 2026-05-01 15:20 | 51.03431 | 71.48132 | 1166 ft | 34 kts | 93° |
| 2026-05-01 15:20 | 51.03336 | 71.48295 | 1165 ft | 19 kts | 209° |
| 2026-05-01 15:21 | 51.03234 | 71.48148 | 1165 ft | 26 kts | 224° |
| 2026-05-01 15:21 | 51.02983 | 71.47759 | 1166 ft | 75 kts | 224° |
| 2026-05-01 15:21 | 51.02488 | 71.46983 | 1170 ft | 126 kts | 225° |
| 2026-05-01 15:21 | 51.01789 | 71.45847 | 1427 ft | 151 kts | 227° |
| 2026-05-01 15:22 | 51.00205 | 71.43316 | 2361 ft | 186 kts | 228° |
| 2026-05-01 15:22 | 50.99224 | 71.41779 | 2758 ft | 212 kts | 228° |
| 2026-05-01 15:22 | 50.98100 | 71.40034 | 3137 ft | 239 kts | 229° |
| 2026-05-01 15:23 | 50.96876 | 71.38145 | 3865 ft | 251 kts | 227° |
| 2026-05-01 15:23 | 50.95680 | 71.36334 | 5199 ft | 236 kts | 225° |
| 2026-05-01 15:23 | 50.94572 | 71.34692 | 6531 ft | 217 kts | 224° |
| 2026-05-01 15:23 | 50.93400 | 71.33159 | 7152 ft | 232 kts | 209° |
| 2026-05-01 15:24 | 50.91723 | 71.32550 | 7452 ft | 267 kts | 179° |
| 2026-05-01 15:24 | 50.89970 | 71.33476 | 8369 ft | 281 kts | 150° |
| 2026-05-01 15:24 | 50.88587 | 71.35764 | 9312 ft | 297 kts | 124° |
| 2026-05-01 15:24 | 50.87966 | 71.38893 | 10219 ft | 311 kts | 97° |
| 2026-05-01 15:25 | 50.88171 | 71.42414 | 10657 ft | 341 kts | 77° |
| 2026-05-01 15:25 | 50.89135 | 71.46043 | 10833 ft | 375 kts | 60° |
| 2026-05-01 15:25 | 50.90734 | 71.49431 | 11054 ft | 405 kts | 45° |
| 2026-05-01 15:25 | 50.92757 | 71.52570 | 11927 ft | 412 kts | 46° |
| 2026-05-01 15:26 | 50.94661 | 71.55958 | 12857 ft | 418 kts | 48° |
| 2026-05-01 15:26 | 50.96599 | 71.59470 | 13757 ft | 425 kts | 49° |
| 2026-05-01 15:26 | 50.98496 | 71.63004 | 14668 ft | 430 kts | 49° |
| 2026-05-01 15:26 | 51.00438 | 71.66647 | 15536 ft | 435 kts | 50° |
| 2026-05-01 15:27 | 51.02407 | 71.70363 | 16320 ft | 443 kts | 50° |
| 2026-05-01 15:27 | 51.04398 | 71.74133 | 17142 ft | 449 kts | 51° |
| 2026-05-01 15:27 | 51.06402 | 71.77937 | 17890 ft | 456 kts | 51° |
| 2026-05-01 15:28 | 51.10498 | 71.85737 | 19476 ft | 467 kts | 51° |
| 2026-05-01 15:28 | 51.12568 | 71.89692 | 20218 ft | 472 kts | 51° |
| 2026-05-01 15:28 | 51.14657 | 71.93683 | 20979 ft | 476 kts | 51° |
| 2026-05-01 15:29 | 51.18938 | 72.01888 | 22300 ft | 487 kts | 51° |
| 2026-05-01 15:29 | 51.21108 | 72.06057 | 22972 ft | 491 kts | 52° |
| 2026-05-01 15:29 | 51.25459 | 72.14437 | 24106 ft | 501 kts | 52° |
| 2026-05-01 15:30 | 51.29179 | 72.21624 | 24950 ft | 510 kts | 52° |
| 2026-05-01 15:31 | 51.39106 | 72.40895 | 26167 ft | 525 kts | 51° |
| 2026-05-01 15:31 | 51.42921 | 72.50415 | 26123 ft | 489 kts | 69° |
| 2026-05-01 15:32 | 51.44592 | 72.60349 | 26092 ft | 445 kts | 90° |
| 2026-05-01 15:32 | 51.44142 | 72.69790 | 25602 ft | 409 kts | 114° |
| 2026-05-01 15:33 | 51.39326 | 72.79676 | 23808 ft | 365 kts | 154° |
| 2026-05-01 15:34 | 51.35373 | 72.89878 | 21579 ft | 386 kts | 108° |